Flight Track Log - Related Links

Times and Time Zones

All times are in EST time to prevent confusion due to time zone crossing. See the EJA941 flight status page for this flight to view local times or setup timezone preferences in your user account.


Time Position Orientation Groundspeed Altitude Reporting Facility
EST Latitude Longitude Course Direction KTS MPH feet Rate Location/Type
Fri 04:11:16 PM 29.6378 -95.2694 163° South 171 197 500  Level Houston Center
Fri 04:12:28 PM 29.5725 -95.2461 163° South 225 259 5,100 3,581 Climbing Houston Center
Fri 04:13:20 PM 29.5300 -95.2553 191° South 229 264 7,900 3,484 Climbing Houston Center
Fri 04:13:30 PM 29.5117 -95.2681 211° Southwest 243 280 8,700 2,516 Climbing Houston Center
Fri 04:14:22 PM 29.5106 -95.3247 269° West 269 310 10,500 2,100 Climbing Houston Center
Fri 04:14:30 PM 29.5136 -95.3567 276° West 299 344 10,800 1,548 Climbing Houston Center
Fri 04:15:24 PM 29.4767 -95.4306 240° Southwest 321 369 12,100 1,846 Climbing Houston Center
Fri 04:16:27 PM 29.4181 -95.5058 228° Southwest 317 365 14,400 1,728 Climbing Houston Center
Fri 04:17:29 PM 29.3547 -95.5858 228° Southwest 335 386 15,700 1,645 Climbing Houston Center
Fri 04:18:31 PM 29.2917 -95.6686 229° Southwest 344 396 17,800 2,032 Climbing Houston Center
Fri 04:19:33 PM 29.2261 -95.7486 227° Southwest 346 398 19,900 1,694 Climbing Houston Center
Fri 04:20:35 PM 29.1581 -95.8303 226° Southwest 352 405 21,300 1,016 Climbing Houston Center
Fri 04:21:37 PM 29.0711 -95.9336 226° Southwest 374 430 22,000 339 Climbing Houston Center
Fri 04:22:39 PM 28.9969 -96.0239 227° Southwest 400 460 22,000  Level Houston Center
Fri 04:23:42 PM 28.9172 -96.1172 226° Southwest 408 470 22,000  Level Houston Center
Fri 04:24:44 PM 28.8394 -96.2100 226° Southwest 404 465 22,000  Level Houston Center
Fri 04:25:46 PM 28.7453 -96.3203 226° Southwest 404 465 22,000  Level Houston Center
Fri 04:26:48 PM 28.6681 -96.4131 227° Southwest 403 464 22,000  Level Houston Center
Fri 04:27:50 PM 28.5911 -96.5044 226° Southwest 401 461 22,000 -48 Level Houston Center
Fri 04:28:52 PM 28.5131 -96.5958 226° Southwest 403 464 21,900 -871 Descending Houston Center
Fri 04:29:54 PM 28.4350 -96.6875 226° Southwest 401 461 20,200 -1,765 Descending Houston Center
Fri 04:30:17 PM 28.3975 -96.7308 225° Southwest 412 474 19,400 -1,742 Descending Houston Center
Fri 04:30:56 PM 28.3564 -96.7806 227° Southwest 404 465 18,400 -2,000 Descending Houston Center
Fri 04:30:59 PM 28.3419 -96.7983 227° Southwest 408 470 18,000 -1,810 Descending Houston Center
Fri 04:31:59 PM 28.2778 -96.8736 226° Southwest 406 467 16,500 -1,869 Descending Houston Center
Fri 04:32:00 PM 28.2600 -96.8936 225° Southwest 399 459 16,100 -1,855 Descending Houston Center
Fri 04:32:54 PM 28.2039 -96.9753 232° Southwest 373 429 14,800 -1,475 Descending Houston Center
Fri 04:33:01 PM 28.1986 -96.9828 231° Southwest 376 433 14,600 -2,174 Descending Houston Center
Fri 04:34:03 PM 28.1356 -97.0839 235° Southwest 384 442 12,300 -2,273 Descending Houston Center
Fri 04:34:07 PM 28.1286 -97.0928 228° Southwest 383 441 12,100 -1,742 Descending Houston Center
Fri 04:35:05 PM 28.0711 -97.1844 235° Southwest 361 415 10,500 -950 Descending Houston Center
Fri 04:36:07 PM 28.0197 -97.2636 234° Southwest 304 350 10,200 -286 Descending Houston Center
Fri 04:36:08 PM 28.0211 -97.2622 41° Northeast 285 328 10,200 -1,065 Level Houston Center
Fri 04:37:09 PM 27.9750 -97.3336 234° Southwest 273 314 9,100 -1,122 Descending Houston Center
Fri 04:38:11 PM 27.9300 -97.4036 234° Southwest 270 311 7,900 -1,200 Descending Houston Center
Fri 04:39:04 PM 27.8917 -97.4650 235° Southwest 258 297 6,800 -1,143 Descending Houston Center
Fri 04:39:14 PM 27.8883 -97.4700 233° Southwest 257 296 6,700 -667 Descending Houston Center
Fri 04:40:16 PM 27.8478 -97.5372 236° Southwest 254 292 6,000 -774 Descending Houston Center
Fri 04:41:18 PM 27.8061 -97.6069 236° Southwest 245 282 5,100 -968 Descending Houston Center
Fri 04:42:20 PM 27.7653 -97.6753 236° Southwest 254 292 4,000 -532 Descending Houston Center
Fri 04:43:22 PM 27.7250 -97.7419 236° Southwest 254 292 4,000  Level Houston Center
Fri 04:44:24 PM 27.6839 -97.8094 235° Southwest 255 293 4,000 -339 Level Houston Center
Fri 04:45:26 PM 27.6408 -97.8819 236° Southwest 254 292 3,300 -960 Descending Houston Center
Fri 04:46:29 PM 27.6017 -97.9464 236° Southwest 246 283 2,000 -624 Descending Houston Center
Fri 04:47:31 PM 27.5728 -97.9989 238° Southwest 189 217 2,000 -290 Level Houston Center
Fri 04:48:33 PM 27.5989 -98.0339 310° West 149 171 1,400 -726 Descending Houston Center
Fri 04:49:35 PM 27.5706 -98.0481 204° Southwest 139 160 500 -581 Descending Houston Center
Fri 04:50:37 PM 27.5411 -98.0264 147° Southeast 140 161 200 -290 Descending Houston Center

Login

Don't have an account? Register now (free) for customized features, flight alerts, and more!